createdAt,value
2022-10-08T00:03:31.425Z,9.51
2022-10-08T00:08:37.662Z,9.62
2022-10-08T00:13:42.191Z,9.71
2022-10-08T00:18:47.176Z,9.81
2022-10-08T00:23:52.212Z,9.90
2022-10-08T00:28:57.466Z,9.95
2022-10-08T00:34:02.505Z,10.01
2022-10-08T00:39:17.309Z,10.07
2022-10-08T00:44:51.729Z,10.11
2022-10-08T00:49:57.723Z,10.19
2022-10-08T00:55:06.430Z,10.24
2022-10-08T01:00:14.142Z,10.31
2022-10-08T01:05:23.330Z,10.37
2022-10-08T01:10:26.136Z,10.41
2022-10-08T01:15:42.327Z,10.46
2022-10-08T01:20:57.237Z,10.53
2022-10-08T01:26:18.466Z,10.60
2022-10-08T01:31:27.465Z,10.66
2022-10-08T01:36:36.667Z,10.73
2022-10-08T01:41:46.382Z,10.78
2022-10-08T01:46:52.133Z,10.80
2022-10-08T01:52:04.425Z,10.79
2022-10-08T01:57:09.512Z,10.73
2022-10-08T02:02:22.266Z,10.67
2022-10-08T02:07:31.752Z,10.65
2022-10-08T02:12:35.635Z,10.62
2022-10-08T02:17:58.904Z,10.59
2022-10-08T02:23:32.405Z,10.48
2022-10-08T02:28:58.873Z,10.40
2022-10-08T02:34:05.451Z,10.41
2022-10-08T02:39:10.872Z,10.44
2022-10-08T02:44:18.531Z,10.49
2022-10-08T02:49:26.541Z,10.54
2022-10-08T02:54:34.670Z,10.62
2022-10-08T02:59:38.044Z,10.68
2022-10-08T03:04:50.784Z,10.75
2022-10-08T03:09:56.838Z,10.82
2022-10-08T03:15:00.789Z,10.88
2022-10-08T03:20:07.713Z,10.95
2022-10-08T03:25:10.937Z,11.01
2022-10-08T03:30:13.751Z,11.08
2022-10-08T03:35:16.471Z,11.13
2022-10-08T03:40:20.296Z,11.15
2022-10-08T03:45:23.078Z,11.14
2022-10-08T03:50:25.882Z,11.11
2022-10-08T03:55:28.676Z,11.08
2022-10-08T04:00:31.479Z,11.03
2022-10-08T04:05:34.538Z,10.99
2022-10-08T04:10:38.830Z,11.01
2022-10-08T04:15:43.171Z,11.06
2022-10-08T04:20:46.067Z,11.11
2022-10-08T04:25:51.075Z,11.16
2022-10-08T04:31:00.846Z,11.23
2022-10-08T04:36:08.916Z,11.28
2022-10-08T04:41:19.080Z,11.29
2022-10-08T04:46:22.818Z,11.24
2022-10-08T04:51:27.624Z,11.21
2022-10-08T04:56:32.445Z,11.19
2022-10-08T05:01:35.342Z,11.22
2022-10-08T05:06:38.324Z,11.25
2022-10-08T05:11:41.319Z,11.27
2022-10-08T05:16:44.223Z,11.30
2022-10-08T05:21:47.125Z,11.34
2022-10-08T05:26:59.607Z,11.39
2022-10-08T05:32:03.994Z,11.48
2022-10-08T05:37:06.903Z,11.75
2022-10-08T05:42:09.807Z,12.26
2022-10-08T05:47:12.703Z,13.12
2022-10-08T05:52:15.507Z,13.46
2022-10-08T05:57:18.277Z,13.67
2022-10-08T06:02:22.355Z,14.02
2022-10-08T06:07:25.243Z,14.23
2022-10-08T06:12:28.034Z,14.79
2022-10-08T06:17:30.774Z,15.37
2022-10-08T06:22:33.620Z,16.12
2022-10-08T06:27:36.567Z,16.65
2022-10-08T06:32:39.558Z,17.01
2022-10-08T06:37:42.465Z,17.76
2022-10-08T06:42:45.626Z,17.82
2022-10-08T06:47:49.706Z,17.30
2022-10-08T06:52:52.520Z,18.05
2022-10-08T06:57:55.410Z,19.24
2022-10-08T07:02:58.621Z,20.03
2022-10-08T07:08:01.537Z,20.74
2022-10-08T07:13:04.535Z,20.78
2022-10-08T07:18:09.542Z,20.94
2022-10-08T07:23:12.491Z,21.33
2022-10-08T07:28:15.441Z,21.73
2022-10-08T07:33:18.501Z,21.52
2022-10-08T07:38:21.404Z,21.83
2022-10-08T07:43:24.207Z,22.18
2022-10-08T07:48:33.663Z,22.23
2022-10-08T07:53:37.972Z,22.48
2022-10-08T07:58:42.270Z,22.50
2022-10-08T08:03:45.449Z,22.58
2022-10-08T08:08:48.669Z,22.80
2022-10-08T08:13:53.109Z,22.75
2022-10-08T08:18:58.669Z,22.20
2022-10-08T08:24:07.306Z,21.32
2022-10-08T08:29:16.666Z,20.73
2022-10-08T08:34:24.817Z,20.09
2022-10-08T08:39:29.682Z,19.57
2022-10-08T08:44:38.275Z,19.35
2022-10-08T08:49:46.912Z,19.36
2022-10-08T08:54:53.411Z,19.32
2022-10-08T09:00:14.107Z,19.18
2022-10-08T09:05:18.872Z,19.06
2022-10-08T09:10:30.110Z,18.97
2022-10-08T09:15:36.463Z,18.93
2022-10-08T09:20:42.226Z,19.07
2022-10-08T09:25:52.921Z,19.24
2022-10-08T09:31:31.672Z,19.43
2022-10-08T09:36:43.421Z,19.31
2022-10-08T09:41:48.317Z,19.04
2022-10-08T09:47:05.970Z,18.89
2022-10-08T09:52:19.732Z,18.88
2022-10-08T09:57:23.206Z,18.95
2022-10-08T10:02:31.995Z,18.97
2022-10-08T10:07:45.749Z,19.04
2022-10-08T10:12:55.265Z,19.17
2022-10-08T10:18:03.350Z,19.28
2022-10-08T10:23:12.685Z,19.39
2022-10-08T10:28:41.664Z,19.44
2022-10-08T10:34:02.534Z,19.32
2022-10-08T10:39:29.496Z,19.19
2022-10-08T10:44:50.420Z,19.28
2022-10-08T10:49:53.428Z,19.49
2022-10-08T10:55:21.114Z,19.37
2022-10-08T11:00:28.391Z,19.17
2022-10-08T11:05:35.625Z,19.02
2022-10-08T11:11:03.006Z,19.01
2022-10-08T11:16:09.106Z,19.02
2022-10-08T11:21:20.484Z,18.99
2022-10-08T11:26:41.821Z,18.85
2022-10-08T11:31:49.331Z,18.73
2022-10-08T11:37:20.510Z,18.65
2022-10-08T11:42:29.176Z,18.64
2022-10-08T11:47:42.186Z,18.72
2022-10-08T11:52:45.582Z,18.80
2022-10-08T11:58:09.128Z,18.78
2022-10-08T12:03:33.419Z,18.68
2022-10-08T12:08:51.563Z,18.61
2022-10-08T12:14:12.903Z,18.60
2022-10-08T12:19:35.182Z,18.64
2022-10-08T12:24:38.674Z,18.79
2022-10-08T12:29:58.874Z,18.86
2022-10-08T12:35:02.084Z,18.92
2022-10-08T12:40:35.251Z,18.94
2022-10-08T12:45:54.282Z,19.00
2022-10-08T12:51:19.711Z,19.04
2022-10-08T12:56:29.989Z,19.08
2022-10-08T13:01:34.584Z,18.98
2022-10-08T13:06:37.650Z,18.91
2022-10-08T13:11:40.547Z,18.87
2022-10-08T13:16:47.636Z,18.74
2022-10-08T13:21:56.597Z,18.55
2022-10-08T13:26:59.603Z,18.36
2022-10-08T13:32:11.724Z,18.16
2022-10-08T13:37:39.373Z,18.01
2022-10-08T13:42:47.325Z,17.89
2022-10-08T13:47:51.053Z,17.80
2022-10-08T13:52:57.847Z,17.75
2022-10-08T13:58:02.693Z,17.69
2022-10-08T14:03:06.268Z,17.61
2022-10-08T14:08:23.655Z,17.49
2022-10-08T14:13:26.875Z,17.29
2022-10-08T14:18:29.774Z,17.15
2022-10-08T14:23:32.781Z,17.02
2022-10-08T14:28:35.591Z,16.89
2022-10-08T14:33:38.486Z,16.73
2022-10-08T14:38:41.593Z,16.55
2022-10-08T14:43:44.498Z,16.37
2022-10-08T14:48:47.407Z,16.23
2022-10-08T14:53:52.764Z,16.11
2022-10-08T14:58:55.575Z,16.02
2022-10-08T15:03:58.503Z,15.93
2022-10-08T15:09:01.693Z,15.84
2022-10-08T15:14:04.996Z,15.71
2022-10-08T15:19:08.309Z,15.57
2022-10-08T15:24:11.218Z,15.43
2022-10-08T15:29:14.331Z,15.30
2022-10-08T15:34:19.352Z,15.15
2022-10-08T15:39:22.995Z,15.02
2022-10-08T15:44:31.282Z,14.91
2022-10-08T15:49:36.719Z,14.81
2022-10-08T15:54:43.890Z,14.71
2022-10-08T15:59:46.900Z,14.57
2022-10-08T16:04:50.109Z,14.44
2022-10-08T16:09:53.017Z,14.32
2022-10-08T16:14:55.818Z,14.20
2022-10-08T16:19:58.819Z,14.10
2022-10-08T16:25:01.731Z,13.99
2022-10-08T16:30:05.057Z,13.86
2022-10-08T16:35:08.558Z,13.70
2022-10-08T16:40:11.769Z,13.55
2022-10-08T16:45:14.676Z,13.39
2022-10-08T16:50:17.579Z,13.22
2022-10-08T16:55:20.482Z,13.06
2022-10-08T17:00:23.509Z,12.91
2022-10-08T17:05:26.802Z,12.78
2022-10-08T17:10:30.218Z,12.67
2022-10-08T17:15:33.228Z,12.55
2022-10-08T17:20:37.288Z,12.45
2022-10-08T17:25:40.375Z,12.37
2022-10-08T17:30:43.286Z,12.31
2022-10-08T17:35:46.581Z,12.24
2022-10-08T17:40:49.381Z,12.18
2022-10-08T17:45:53.160Z,12.12
2022-10-08T17:50:56.015Z,12.08
2022-10-08T17:56:01.065Z,12.05
2022-10-08T18:01:20.631Z,11.99
2022-10-08T18:06:25.809Z,11.94
2022-10-08T18:11:31.590Z,11.89
2022-10-08T18:16:35.361Z,11.84
2022-10-08T18:21:38.767Z,11.79
2022-10-08T18:26:41.735Z,11.76
2022-10-08T18:31:46.888Z,11.75
2022-10-08T18:36:49.797Z,11.78
2022-10-08T18:41:52.594Z,11.86
2022-10-08T18:46:55.501Z,11.93
2022-10-08T18:52:01.682Z,12.01
2022-10-08T18:57:04.585Z,12.07
2022-10-08T19:02:10.093Z,12.14
2022-10-08T19:07:13.075Z,12.18
2022-10-08T19:12:16.181Z,12.20
2022-10-08T19:17:19.070Z,12.20
2022-10-08T19:22:21.972Z,12.20
2022-10-08T19:27:24.983Z,12.18
2022-10-08T19:32:27.883Z,12.14
2022-10-08T19:37:32.529Z,12.12
2022-10-08T19:42:35.429Z,12.11
2022-10-08T19:47:38.232Z,12.08
2022-10-08T19:52:40.994Z,12.06
2022-10-08T19:57:43.735Z,12.02
2022-10-08T20:02:47.352Z,11.98
2022-10-08T20:07:50.461Z,11.93
2022-10-08T20:12:54.824Z,11.87
2022-10-08T20:17:57.706Z,11.79
2022-10-08T20:23:00.709Z,11.71
2022-10-08T20:28:03.743Z,11.65
2022-10-08T20:33:06.622Z,11.57
2022-10-08T20:38:12.289Z,11.48
2022-10-08T20:43:15.194Z,11.36
2022-10-08T20:48:17.996Z,11.27
2022-10-08T20:53:20.797Z,11.19
2022-10-08T20:58:23.601Z,11.12
2022-10-08T21:03:28.372Z,11.06
2022-10-08T21:08:31.251Z,11.02
2022-10-08T21:13:35.527Z,10.97
2022-10-08T21:18:39.004Z,10.91
2022-10-08T21:23:42.317Z,10.86
2022-10-08T21:28:47.614Z,10.79
2022-10-08T21:33:52.837Z,10.74
2022-10-08T21:38:59.247Z,10.77
2022-10-08T21:44:05.814Z,10.85
2022-10-08T21:49:16.094Z,10.92
2022-10-08T21:54:18.993Z,10.98
2022-10-08T21:59:21.896Z,11.00
2022-10-08T22:04:25.927Z,11.00
2022-10-08T22:09:31.085Z,11.00
2022-10-08T22:14:33.987Z,11.00
2022-10-08T22:19:36.996Z,11.02
2022-10-08T22:24:39.807Z,11.04
2022-10-08T22:29:43.047Z,11.06
2022-10-08T22:34:45.918Z,11.07
2022-10-08T22:39:48.817Z,11.07
2022-10-08T22:44:51.718Z,11.04
2022-10-08T22:49:54.519Z,11.01
2022-10-08T22:54:57.329Z,10.96
2022-10-08T23:00:00.163Z,10.89
2022-10-08T23:05:04.289Z,10.84
2022-10-08T23:10:07.569Z,10.81
2022-10-08T23:15:11.303Z,10.76
2022-10-08T23:20:14.127Z,10.67
2022-10-08T23:25:17.001Z,10.52
2022-10-08T23:30:41.721Z,10.33
2022-10-08T23:35:42.773Z,10.11
2022-10-08T23:40:45.574Z,9.88
2022-10-08T23:45:48.423Z,9.66
2022-10-08T23:50:52.985Z,9.50
2022-10-08T23:55:56.029Z,9.43
